PWSweather.com
Personal Weather Stations
Station Observations
MORSE1
Massachusetts, West Townsend, MA 01474

MassachusettsWest Townsend, MA 01474

Lat: 42.676, Lon: -71.749

Elevation: 335

Station Type: Rainwise Mk III

Latest ConditionsUpdated 8:26:00 AM EST Thursday, Nov 14, 2019
Currently Today's Max Today's Min Today's Average
Temperature 19.0°F-7.2°C 19.0°F-7.2°C 12.0°F-11.1°C 14.0°F-10.0°C
Dew Point 14.4°F-9.8°C 14.4°F-9.8°C 7.7°F-13.5°C 10.2°F-12.1°C
Winds Calm Calm 1.4 mph -2.3 kmh - - 0.0 mph 0.0 kmh
Wind Gusts -- -- - -
Humidity 82% 87% 79% 84%
Pressure 30.47 in1031.8 mb 30.47 in1031.8 mb 30.42 in1030.1 mb -
Hour Temp Dew Point Humidity Winds Wind Gusts Pressure Precip Precip Rate Daily Precip Total
08:26 AM 19.0°F-7.2°C 14.4°F-9.8°C 82% Calm Calm -- 30.47 in1031.8 mb 0.00 in0.0 mm 0.00 in0.0 mm 0.00 in0.0 mm
08:20 AM 18.0°F-7.8°C 13.7°F-10.2°C 83% 0.8 mph ENE1.3 kmh ENE -- 30.47 in1031.8 mb 0.00 in0.0 mm 0.00 in0.0 mm 0.00 in0.0 mm
08:14 AM 18.0°F-7.8°C 14.0°F-10.0°C 84% Calm Calm -- 30.47 in1031.8 mb 0.00 in0.0 mm 0.00 in0.0 mm 0.00 in0.0 mm
08:08 AM 18.0°F-7.8°C 14.0°F-10.0°C 84% Calm Calm -- 30.46 in1031.5 mb 0.00 in0.0 mm 0.00 in0.0 mm 0.00 in0.0 mm
08:02 AM 18.0°F-7.8°C 14.0°F-10.0°C 84% Calm Calm -- 30.46 in1031.5 mb 0.00 in0.0 mm 0.00 in0.0 mm 0.00 in0.0 mm
07:56 AM 17.0°F-8.3°C 13.3°F-10.4°C 85% Calm Calm -- 30.46 in1031.5 mb 0.00 in0.0 mm 0.00 in0.0 mm 0.00 in0.0 mm
07:50 AM 17.0°F-8.3°C 13.3°F-10.4°C 85% Calm Calm -- 30.45 in1031.2 mb 0.00 in0.0 mm 0.00 in0.0 mm 0.00 in0.0 mm
07:44 AM 17.0°F-8.3°C 13.3°F-10.4°C 85% Calm Calm -- 30.45 in1031.2 mb 0.00 in0.0 mm 0.00 in0.0 mm 0.00 in0.0 mm
07:38 AM 17.0°F-8.3°C 13.3°F-10.4°C 85% Calm Calm -- 30.45 in1031.2 mb 0.00 in0.0 mm 0.00 in0.0 mm 0.00 in0.0 mm
07:33 AM 16.0°F-8.9°C 12.6°F-10.8°C 86% Calm Calm -- 30.45 in1031.2 mb 0.00 in0.0 mm 0.00 in0.0 mm 0.00 in0.0 mm
07:28 AM 16.0°F-8.9°C 12.6°F-10.8°C 86% Calm Calm -- 30.45 in1031.2 mb 0.00 in0.0 mm 0.00 in0.0 mm 0.00 in0.0 mm
07:22 AM 16.0°F-8.9°C 12.6°F-10.8°C 86% Calm Calm -- 30.44 in1030.8 mb 0.00 in0.0 mm 0.00 in0.0 mm 0.00 in0.0 mm
07:16 AM 15.4°F-9.2°C 12.0°F-11.1°C 86% 0.1 mph SE0.2 kmh SE -- 30.44 in1030.8 mb 0.00 in0.0 mm 0.00 in0.0 mm 0.00 in0.0 mm
07:11 AM 15.0°F-9.4°C 11.6°F-11.3°C 86% Calm Calm -- 30.43 in1030.5 mb 0.00 in0.0 mm 0.00 in0.0 mm 0.00 in0.0 mm
07:05 AM 15.0°F-9.4°C 11.6°F-11.3°C 86% Calm Calm -- 30.43 in1030.5 mb 0.00 in0.0 mm 0.00 in0.0 mm 0.00 in0.0 mm
06:59 AM 15.0°F-9.4°C 11.6°F-11.3°C 86% Calm Calm -- 30.44 in1030.8 mb 0.00 in0.0 mm 0.00 in0.0 mm 0.00 in0.0 mm
06:54 AM 15.0°F-9.4°C 11.6°F-11.3°C 86% Calm Calm -- 30.44 in1030.8 mb 0.00 in0.0 mm 0.00 in0.0 mm 0.00 in0.0 mm
06:49 AM 15.0°F-9.4°C 11.6°F-11.3°C 86% Calm Calm -- 30.45 in1031.2 mb 0.00 in0.0 mm 0.00 in0.0 mm 0.00 in0.0 mm
06:43 AM 14.0°F-10.0°C 10.6°F-11.9°C 86% Calm Calm -- 30.44 in1030.8 mb 0.00 in0.0 mm 0.00 in0.0 mm 0.00 in0.0 mm
06:37 AM 14.0°F-10.0°C 10.6°F-11.9°C 86% Calm Calm -- 30.43 in1030.5 mb 0.00 in0.0 mm 0.00 in0.0 mm 0.00 in0.0 mm
06:32 AM 14.0°F-10.0°C 10.6°F-11.9°C 86% Calm Calm -- 30.44 in1030.8 mb 0.00 in0.0 mm 0.00 in0.0 mm 0.00 in0.0 mm
06:26 AM 14.0°F-10.0°C 10.6°F-11.9°C 86% Calm Calm -- 30.43 in1030.5 mb 0.00 in0.0 mm 0.00 in0.0 mm 0.00 in0.0 mm
06:21 AM 14.0°F-10.0°C 10.6°F-11.9°C 86% Calm Calm -- 30.43 in1030.5 mb 0.00 in0.0 mm 0.00 in0.0 mm 0.00 in0.0 mm
06:15 AM 14.0°F-10.0°C 10.6°F-11.9°C 86% Calm Calm -- 30.43 in1030.5 mb 0.00 in0.0 mm 0.00 in0.0 mm 0.00 in0.0 mm
06:09 AM 14.0°F-10.0°C 10.6°F-11.9°C 86% Calm Calm -- 30.43 in1030.5 mb 0.00 in0.0 mm 0.00 in0.0 mm 0.00 in0.0 mm
06:04 AM 14.0°F-10.0°C 10.6°F-11.9°C 86% 1.4 mph SE2.3 kmh SE -- 30.45 in1031.2 mb 0.00 in0.0 mm 0.00 in0.0 mm 0.00 in0.0 mm
05:58 AM 14.0°F-10.0°C 10.3°F-12.1°C 85% Calm Calm -- 30.45 in1031.2 mb 0.00 in0.0 mm 0.00 in0.0 mm 0.00 in0.0 mm
05:52 AM 15.0°F-9.4°C 11.3°F-11.5°C 85% 0.2 mph SE0.3 kmh SE -- 30.43 in1030.5 mb 0.00 in0.0 mm 0.00 in0.0 mm 0.00 in0.0 mm
05:46 AM 15.0°F-9.4°C 11.1°F-11.6°C 84% Calm Calm -- 30.43 in1030.5 mb 0.00 in0.0 mm 0.00 in0.0 mm 0.00 in0.0 mm
05:40 AM 15.0°F-9.4°C 11.1°F-11.6°C 84% Calm Calm -- 30.43 in1030.5 mb 0.00 in0.0 mm 0.00 in0.0 mm 0.00 in0.0 mm
05:35 AM 15.0°F-9.4°C 11.3°F-11.5°C 85% Calm Calm -- 30.44 in1030.8 mb 0.00 in0.0 mm 0.00 in0.0 mm 0.00 in0.0 mm
05:30 AM 15.0°F-9.4°C 11.3°F-11.5°C 85% Calm Calm -- 30.44 in1030.8 mb 0.00 in0.0 mm 0.00 in0.0 mm 0.00 in0.0 mm
05:24 AM 15.0°F-9.4°C 11.3°F-11.5°C 85% Calm Calm -- 30.45 in1031.2 mb 0.00 in0.0 mm 0.00 in0.0 mm 0.00 in0.0 mm
05:19 AM 15.0°F-9.4°C 11.3°F-11.5°C 85% Calm Calm -- 30.44 in1030.8 mb 0.00 in0.0 mm 0.00 in0.0 mm 0.00 in0.0 mm
05:13 AM 15.0°F-9.4°C 11.3°F-11.5°C 85% Calm Calm -- 30.44 in1030.8 mb 0.00 in0.0 mm 0.00 in0.0 mm 0.00 in0.0 mm
05:08 AM 15.0°F-9.4°C 11.3°F-11.5°C 85% Calm Calm -- 30.43 in1030.5 mb 0.00 in0.0 mm 0.00 in0.0 mm 0.00 in0.0 mm
05:02 AM 15.0°F-9.4°C 11.3°F-11.5°C 85% Calm Calm -- 30.43 in1030.5 mb 0.00 in0.0 mm 0.00 in0.0 mm 0.00 in0.0 mm
04:57 AM 15.0°F-9.4°C 11.6°F-11.3°C 86% Calm Calm -- 30.44 in1030.8 mb 0.00 in0.0 mm 0.00 in0.0 mm 0.00 in0.0 mm
04:51 AM 15.0°F-9.4°C 11.6°F-11.3°C 86% Calm Calm -- 30.43 in1030.5 mb 0.00 in0.0 mm 0.00 in0.0 mm 0.00 in0.0 mm
04:45 AM 15.0°F-9.4°C 11.6°F-11.3°C 86% Calm Calm -- 30.44 in1030.8 mb 0.00 in0.0 mm 0.00 in0.0 mm 0.00 in0.0 mm
04:40 AM 14.0°F-10.0°C 10.6°F-11.9°C 86% Calm Calm -- 30.43 in1030.5 mb 0.00 in0.0 mm 0.00 in0.0 mm 0.00 in0.0 mm
04:35 AM 14.0°F-10.0°C 10.6°F-11.9°C 86% Calm Calm -- 30.43 in1030.5 mb 0.00 in0.0 mm 0.00 in0.0 mm 0.00 in0.0 mm
04:29 AM 14.0°F-10.0°C 10.6°F-11.9°C 86% Calm Calm -- 30.45 in1031.2 mb 0.00 in0.0 mm 0.00 in0.0 mm 0.00 in0.0 mm
04:23 AM 14.0°F-10.0°C 10.9°F-11.7°C 87% Calm Calm -- 30.45 in1031.2 mb 0.00 in0.0 mm 0.00 in0.0 mm 0.00 in0.0 mm
04:18 AM 14.0°F-10.0°C 10.6°F-11.9°C 86% Calm Calm -- 30.45 in1031.2 mb 0.00 in0.0 mm 0.00 in0.0 mm 0.00 in0.0 mm
04:12 AM 13.0°F-10.6°C 9.6°F-12.4°C 86% Calm Calm -- 30.45 in1031.2 mb 0.00 in0.0 mm 0.00 in0.0 mm 0.00 in0.0 mm
04:06 AM 12.9°F-10.6°C 9.3°F-12.6°C 85% Calm Calm -- 30.44 in1030.8 mb 0.00 in0.0 mm 0.00 in0.0 mm 0.00 in0.0 mm
04:01 AM 13.0°F-10.6°C 9.6°F-12.4°C 86% Calm Calm -- 30.43 in1030.5 mb 0.00 in0.0 mm 0.00 in0.0 mm 0.00 in0.0 mm
03:55 AM 13.0°F-10.6°C 9.6°F-12.4°C 86% Calm Calm -- 30.43 in1030.5 mb 0.00 in0.0 mm 0.00 in0.0 mm 0.00 in0.0 mm
03:50 AM 13.0°F-10.6°C 9.6°F-12.4°C 86% Calm Calm -- 30.43 in1030.5 mb 0.00 in0.0 mm 0.00 in0.0 mm 0.00 in0.0 mm
03:44 AM 12.0°F-11.1°C 8.6°F-13.0°C 86% Calm Calm -- 30.44 in1030.8 mb 0.00 in0.0 mm 0.00 in0.0 mm 0.00 in0.0 mm
03:39 AM 12.0°F-11.1°C 8.6°F-13.0°C 86% Calm Calm -- 30.43 in1030.5 mb 0.00 in0.0 mm 0.00 in0.0 mm 0.00 in0.0 mm
03:33 AM 12.0°F-11.1°C 8.6°F-13.0°C 86% Calm Calm -- 30.43 in1030.5 mb 0.00 in0.0 mm 0.00 in0.0 mm 0.00 in0.0 mm
03:28 AM 12.0°F-11.1°C 8.6°F-13.0°C 86% Calm Calm -- 30.43 in1030.5 mb 0.00 in0.0 mm 0.00 in0.0 mm 0.00 in0.0 mm
03:22 AM 12.0°F-11.1°C 8.6°F-13.0°C 86% Calm Calm -- 30.43 in1030.5 mb 0.00 in0.0 mm 0.00 in0.0 mm 0.00 in0.0 mm
03:17 AM 12.0°F-11.1°C 8.6°F-13.0°C 86% Calm Calm -- 30.43 in1030.5 mb 0.00 in0.0 mm 0.00 in0.0 mm 0.00 in0.0 mm
03:12 AM 12.0°F-11.1°C 8.6°F-13.0°C 86% 0.1 mph SE0.2 kmh SE -- 30.43 in1030.5 mb 0.00 in0.0 mm 0.00 in0.0 mm 0.00 in0.0 mm
03:06 AM 12.0°F-11.1°C 8.4°F-13.1°C 85% Calm Calm -- 30.43 in1030.5 mb 0.00 in0.0 mm 0.00 in0.0 mm 0.00 in0.0 mm
03:00 AM 12.0°F-11.1°C 8.4°F-13.1°C 85% Calm Calm -- 30.43 in1030.5 mb 0.00 in0.0 mm 0.00 in0.0 mm 0.00 in0.0 mm
02:55 AM 12.0°F-11.1°C 8.4°F-13.1°C 85% Calm Calm -- 30.43 in1030.5 mb 0.00 in0.0 mm 0.00 in0.0 mm 0.00 in0.0 mm
02:50 AM 12.0°F-11.1°C 8.4°F-13.1°C 85% Calm Calm -- 30.43 in1030.5 mb 0.00 in0.0 mm 0.00 in0.0 mm 0.00 in0.0 mm
02:44 AM 12.0°F-11.1°C 8.4°F-13.1°C 85% Calm Calm -- 30.43 in1030.5 mb 0.00 in0.0 mm 0.00 in0.0 mm 0.00 in0.0 mm
02:39 AM 12.0°F-11.1°C 8.4°F-13.1°C 85% Calm Calm -- 30.43 in1030.5 mb 0.00 in0.0 mm 0.00 in0.0 mm 0.00 in0.0 mm
02:33 AM 12.0°F-11.1°C 8.4°F-13.1°C 85% 0.1 mph SE0.2 kmh SE -- 30.43 in1030.5 mb 0.00 in0.0 mm 0.00 in0.0 mm 0.00 in0.0 mm
02:28 AM 12.0°F-11.1°C 8.1°F-13.3°C 84% Calm Calm -- 30.43 in1030.5 mb 0.00 in0.0 mm 0.00 in0.0 mm 0.00 in0.0 mm
02:23 AM 13.0°F-10.6°C 9.1°F-12.7°C 84% Calm Calm -- 30.43 in1030.5 mb 0.00 in0.0 mm 0.00 in0.0 mm 0.00 in0.0 mm
02:17 AM 13.0°F-10.6°C 9.1°F-12.7°C 84% Calm Calm -- 30.43 in1030.5 mb 0.00 in0.0 mm 0.00 in0.0 mm 0.00 in0.0 mm
02:11 AM 13.0°F-10.6°C 9.1°F-12.7°C 84% Calm Calm -- 30.43 in1030.5 mb 0.00 in0.0 mm 0.00 in0.0 mm 0.00 in0.0 mm
02:06 AM 13.0°F-10.6°C 9.1°F-12.7°C 84% Calm Calm -- 30.43 in1030.5 mb 0.00 in0.0 mm 0.00 in0.0 mm 0.00 in0.0 mm
02:01 AM 13.0°F-10.6°C 9.1°F-12.7°C 84% Calm Calm -- 30.43 in1030.5 mb 0.00 in0.0 mm 0.00 in0.0 mm 0.00 in0.0 mm
01:55 AM 13.0°F-10.6°C 9.1°F-12.7°C 84% Calm Calm -- 30.43 in1030.5 mb 0.00 in0.0 mm 0.00 in0.0 mm 0.00 in0.0 mm
01:50 AM 13.0°F-10.6°C 9.1°F-12.7°C 84% Calm Calm -- 30.43 in1030.5 mb 0.00 in0.0 mm 0.00 in0.0 mm 0.00 in0.0 mm
01:44 AM 13.0°F-10.6°C 8.8°F-12.9°C 83% Calm Calm -- 30.43 in1030.5 mb 0.00 in0.0 mm 0.00 in0.0 mm 0.00 in0.0 mm
01:39 AM 13.0°F-10.6°C 8.8°F-12.9°C 83% Calm Calm -- 30.43 in1030.5 mb 0.00 in0.0 mm 0.00 in0.0 mm 0.00 in0.0 mm
01:33 AM 13.0°F-10.6°C 9.1°F-12.7°C 84% Calm Calm -- 30.43 in1030.5 mb 0.00 in0.0 mm 0.00 in0.0 mm 0.00 in0.0 mm
01:27 AM 13.0°F-10.6°C 9.1°F-12.7°C 84% Calm Calm -- 30.43 in1030.5 mb 0.00 in0.0 mm 0.00 in0.0 mm 0.00 in0.0 mm
01:21 AM 13.0°F-10.6°C 9.1°F-12.7°C 84% Calm Calm -- 30.43 in1030.5 mb 0.00 in0.0 mm 0.00 in0.0 mm 0.00 in0.0 mm
01:16 AM 13.0°F-10.6°C 8.8°F-12.9°C 83% Calm Calm -- 30.43 in1030.5 mb 0.00 in0.0 mm 0.00 in0.0 mm 0.00 in0.0 mm
01:10 AM 13.0°F-10.6°C 8.8°F-12.9°C 83% Calm Calm -- 30.43 in1030.5 mb 0.00 in0.0 mm 0.00 in0.0 mm 0.00 in0.0 mm
01:04 AM 13.0°F-10.6°C 8.8°F-12.9°C 83% Calm Calm -- 30.43 in1030.5 mb 0.00 in0.0 mm 0.00 in0.0 mm 0.00 in0.0 mm
12:59 AM 13.0°F-10.6°C 8.6°F-13.0°C 82% Calm Calm -- 30.43 in1030.5 mb 0.00 in0.0 mm 0.00 in0.0 mm 0.00 in0.0 mm
12:53 AM 13.0°F-10.6°C 8.3°F-13.2°C 81% Calm Calm -- 30.43 in1030.5 mb 0.00 in0.0 mm 0.00 in0.0 mm 0.00 in0.0 mm
12:48 AM 13.0°F-10.6°C 8.3°F-13.2°C 81% Calm Calm -- 30.43 in1030.5 mb 0.00 in0.0 mm 0.00 in0.0 mm 0.00 in0.0 mm
12:42 AM 13.0°F-10.6°C 8.3°F-13.2°C 81% Calm Calm -- 30.43 in1030.5 mb 0.00 in0.0 mm 0.00 in0.0 mm 0.00 in0.0 mm
12:36 AM 13.0°F-10.6°C 8.3°F-13.2°C 81% Calm Calm -- 30.43 in1030.5 mb 0.00 in0.0 mm 0.00 in0.0 mm 0.00 in0.0 mm
12:30 AM 13.0°F-10.6°C 8.0°F-13.3°C 80% Calm Calm -- 30.43 in1030.5 mb 0.00 in0.0 mm 0.00 in0.0 mm 0.00 in0.0 mm
12:25 AM 13.0°F-10.6°C 8.0°F-13.3°C 80% Calm Calm -- 30.43 in1030.5 mb 0.00 in0.0 mm 0.00 in0.0 mm 0.00 in0.0 mm
12:19 AM 13.0°F-10.6°C 7.7°F-13.5°C 79% Calm Calm -- 30.42 in1030.1 mb 0.00 in0.0 mm 0.00 in0.0 mm 0.00 in0.0 mm
12:13 AM 13.0°F-10.6°C 7.7°F-13.5°C 79% Calm Calm -- 30.43 in1030.5 mb 0.00 in0.0 mm 0.00 in0.0 mm 0.00 in0.0 mm
12:07 AM 13.0°F-10.6°C 7.7°F-13.5°C 79% Calm Calm -- 30.43 in1030.5 mb 0.00 in0.0 mm 0.00 in0.0 mm 0.00 in0.0 mm
12:02 AM 13.0°F-10.6°C 7.7°F-13.5°C 79% Calm Calm -- 30.43 in1030.5 mb 0.00 in0.0 mm 0.00 in0.0 mm 0.00 in0.0 mm